Flight Track Log - Related Links

Times and Time Zones

All times are in EDT time to prevent confusion due to time zone crossing. See the SWA484 flight status page for this flight to view local times or setup timezone preferences in your user account.

Time Position Orientation Groundspeed Altitude Reporting Facility
EDT Latitude Longitude Course Direction KTS MPH feet Rate Location/Type
Mon 10:05:54 AM 28.4333 -81.3000 41° Northeast 161 185 700  Level Orlando TRACON
Mon 10:06:13 AM 28.4500 -81.2833 41° Northeast 159 183 1,300 2,127 Climbing Orlando TRACON
Mon 10:07:13 AM 28.5000 -81.2667 16° North 210 242 3,500 2,250 Climbing Orlando TRACON
Mon 10:08:13 AM 28.5667 -81.2500 12° North 250 288 5,800 2,874 Climbing Orlando TRACON
Mon 10:09:12 AM 28.6333 -81.2667 348° North 279 321 9,200 3,328 Climbing Orlando TRACON
Mon 10:10:12 AM 28.7167 -81.2833 350° North 298 343 12,400 2,420 Climbing Orlando TRACON
Mon 10:12:08 AM 28.8833 -81.3322 346° North 360 414 16,300 2,237 Climbing Jacksonville Center
Mon 10:13:09 AM 28.9861 -81.3592 347° North 360 414 19,000 2,826 Climbing Jacksonville Center
Mon 10:14:09 AM 29.0906 -81.3861 347° North 365 420 22,000 2,571 Climbing Jacksonville Center
Mon 10:15:08 AM 29.2036 -81.4011 353° North 388 447 24,100 2,118 Climbing Jacksonville Center
Mon 10:16:08 AM 29.3247 -81.4111 356° North 409 471 26,200 2,182 Climbing Jacksonville Center
Mon 10:17:09 AM 29.4606 -81.4281 354° North 442 509 28,500 2,000 Climbing Jacksonville Center
Mon 10:18:08 AM 29.5881 -81.4381 356° North 448 516 30,200 1,966 Climbing Jacksonville Center
Mon 10:19:08 AM 29.7156 -81.4531 354° North 448 516 32,400 2,033 Climbing Jacksonville Center
Mon 10:20:09 AM 29.8408 -81.4631 356° North 448 516 34,300 1,686 Climbing Jacksonville Center
Mon 10:21:09 AM 29.9642 -81.4756 355° North 448 516 35,800 1,361 Climbing Jacksonville Center
Mon 10:22:08 AM 30.0939 -81.4881 355° North 448 516 37,000 600 Climbing Jacksonville Center
Mon 10:23:09 AM 30.2172 -81.4958 357° North 448 516 37,000  Level Jacksonville Center
Mon 10:24:08 AM 30.3425 -81.5086 355° North 443 510 37,000  Level Jacksonville Center
Mon 10:25:08 AM 30.4678 -81.4994 North 443 510 37,000  Level Jacksonville Center
Mon 10:26:09 AM 30.5950 -81.4906 North 443 510 37,000  Level Jacksonville Center
Mon 10:27:09 AM 30.7200 -81.4814 North 443 510 37,000  Level Jacksonville Center
Mon 10:28:08 AM 30.8494 -81.4722 North 443 510 37,000  Level Jacksonville Center
Mon 10:29:09 AM 30.9747 -81.4606 North 449 517 37,000  Level Jacksonville Center
Mon 10:30:08 AM 31.1019 -81.4514 North 449 517 37,000  Level Jacksonville Center
Mon 10:31:08 AM 31.2269 -81.4422 North 448 516 37,000  Level Jacksonville Center
Mon 10:32:08 AM 31.3542 -81.4133 11° North 454 522 37,000  Level Jacksonville Center
Mon 10:33:08 AM 31.4769 -81.3775 14° North 460 529 37,000  Level Jacksonville Center
Mon 10:34:09 AM 31.5933 -81.3461 13° North 457 526 37,000  Level Jacksonville Center
Mon 10:35:09 AM 31.7308 -81.3097 13° North 462 532 37,000  Level Jacksonville Center
Mon 10:36:08 AM 31.8556 -81.2783 12° North 467 537 37,000  Level Jacksonville Center
Mon 10:37:09 AM 31.9722 -81.2492 12° North 467 537 37,000  Level Jacksonville Center
Mon 10:38:09 AM 32.0947 -81.2128 14° North 467 537 37,000  Level Jacksonville Center
Mon 10:39:08 AM 32.1981 -81.1225 36° Northeast 447 514 37,000  Level Jacksonville Center
Mon 10:40:09 AM 32.2878 -80.9856 52° Northeast 457 526 37,000  Level Jacksonville Center
Mon 10:41:09 AM 32.3675 -80.8633 52° Northeast 470 541 37,000  Level Jacksonville Center
Mon 10:42:09 AM 32.4406 -80.7461 54° Northeast 470 541 37,000  Level Jacksonville Center
Mon 10:43:08 AM 32.5219 -80.6211 52° Northeast 475 547 37,000  Level Jacksonville Center
Mon 10:44:09 AM 32.6011 -80.4956 53° Northeast 475 547 37,000  Level Jacksonville Center
Mon 10:45:08 AM 32.6822 -80.3700 52° Northeast 475 547 37,000  Level Jacksonville Center
Mon 10:46:09 AM 32.7631 -80.2444 53° Northeast 470 541 37,000  Level Jacksonville Center
Mon 10:47:08 AM 32.8417 -80.1183 53° Northeast 470 541 37,000  Level Jacksonville Center
Mon 10:48:08 AM 32.9517 -79.9939 43° Northeast 470 541 37,000  Level Jacksonville Center
Mon 10:49:08 AM 33.0686 -79.9106 31° Northeast 482 555 37,000  Level Jacksonville Center
Mon 10:50:09 AM 33.1836 -79.8275 31° Northeast 482 555 37,000  Level Jacksonville Center
Mon 10:51:08 AM 33.3003 -79.7414 32° Northeast 482 555 37,000  Level Jacksonville Center
Mon 10:52:09 AM 33.4150 -79.6553 32° Northeast 482 555 37,000  Level Jacksonville Center
Mon 10:53:09 AM 33.5297 -79.5714 31° Northeast 482 555 37,000  Level Jacksonville Center
Mon 10:54:08 AM 33.6444 -79.4897 31° Northeast 482 555 37,000  Level Jacksonville Center
Mon 10:55:09 AM 33.7467 -79.4133 32° Northeast 474 545 37,000  Level Jacksonville Center
Mon 10:56:09 AM 33.8592 -79.3289 32° Northeast 474 545 37,000  Level Jacksonville Center
Mon 10:57:09 AM 33.9756 -79.2439 31° Northeast 479 551 37,000  Level Jacksonville Center
Mon 10:58:54 AM 34.1833 -79.0889 32° Northeast 482 555 37,000  Level Washington Center
Mon 10:59:54 AM 34.3028 -79.0008 31° Northeast 488 562 37,000  Level Washington Center
Mon 11:00:54 AM 34.4283 -78.9053 32° Northeast 488 562 37,000  Level Washington Center
Mon 11:01:54 AM 34.5353 -78.8189 34° Northeast 495 570 37,000  Level Washington Center
Mon 11:02:54 AM 34.6672 -78.7206 31° Northeast 500 575 37,000  Level Washington Center
Mon 11:03:54 AM 34.7756 -78.6389 32° Northeast 506 582 37,000  Level Washington Center
Mon 11:04:54 AM 34.8883 -78.5519 32° Northeast 501 577 37,000  Level Washington Center
Mon 11:05:54 AM 35.0075 -78.4600 32° Northeast 501 577 37,000  Level Washington Center
Mon 11:06:54 AM 35.1267 -78.3678 32° Northeast 501 577 37,000  Level Washington Center
Mon 11:07:54 AM 35.2433 -78.2750 33° Northeast 501 577 37,000  Level Washington Center
Mon 11:08:54 AM 35.3644 -78.1822 32° Northeast 507 583 37,000  Level Washington Center
Mon 11:09:54 AM 35.4853 -78.0894 32° Northeast 507 583 37,000  Level Washington Center
Mon 11:10:54 AM 35.6042 -77.9958 33° Northeast 507 583 37,000  Level Washington Center
Mon 11:11:54 AM 35.7247 -77.9022 32° Northeast 507 583 37,000  Level Washington Center
Mon 11:12:54 AM 35.8433 -77.8111 32° Northeast 507 583 37,000  Level Washington Center
Mon 11:13:54 AM 35.9619 -77.7167 33° Northeast 502 578 37,000  Level Washington Center
Mon 11:14:54 AM 36.0786 -77.6144 35° Northeast 502 578 37,000  Level Washington Center
Mon 11:15:54 AM 36.1931 -77.5042 38° Northeast 507 583 37,000  Level Washington Center
Mon 11:16:54 AM 36.3031 -77.3986 38° Northeast 506 582 37,000  Level Washington Center
Mon 11:17:54 AM 36.4194 -77.2903 37° Northeast 511 588 37,000  Level Washington Center
Mon 11:18:54 AM 36.5356 -77.1817 37° Northeast 516 594 37,000  Level Washington Center
Mon 11:19:54 AM 36.6475 -77.0753 37° Northeast 516 594 37,000  Level Washington Center
Mon 11:20:54 AM 36.7636 -76.9661 37° Northeast 516 594 37,000  Level Washington Center
Mon 11:21:54 AM 36.8817 -76.8617 35° Northeast 516 594 37,000  Level Washington Center
Mon 11:22:54 AM 36.9975 -76.7569 36° Northeast 516 594 37,000  Level Washington Center
Mon 11:23:54 AM 37.1153 -76.6494 36° Northeast 516 594 37,000  Level Washington Center
Mon 11:24:54 AM 37.2433 -76.5311 36° Northeast 516 594 37,000  Level Washington Center
Mon 11:25:54 AM 37.3589 -76.4228 37° Northeast 516 594 37,000  Level Washington Center
Mon 11:26:54 AM 37.4764 -76.3219 34° Northeast 516 594 37,000  Level Washington Center
Mon 11:27:54 AM 37.5917 -76.2131 37° Northeast 516 594 37,000  Level Washington Center
Mon 11:28:54 AM 37.7092 -76.1117 34° Northeast 516 594 37,000  Level Washington Center
Mon 11:29:54 AM 37.8242 -75.9967 38° Northeast 516 594 37,000  Level Washington Center
Mon 11:30:54 AM 37.9414 -75.8892 36° Northeast 516 594 37,000  Level Washington Center
Mon 11:31:54 AM 38.0561 -75.7789 37° Northeast 516 594 37,000  Level Washington Center
Mon 11:32:54 AM 38.1753 -75.6683 36° Northeast 521 600 37,000  Level Washington Center
Mon 11:33:54 AM 38.2942 -75.5600 36° Northeast 527 606 37,000  Level Washington Center
Mon 11:34:54 AM 38.4086 -75.4831 28° Northeast 522 601 37,000  Level Washington Center
Mon 11:35:54 AM 38.5483 -75.4272 17° North 512 589 37,000  Level Washington Center
Mon 11:36:54 AM 38.6858 -75.3708 18° North 512 589 37,000  Level Washington Center
Mon 11:37:54 AM 38.8233 -75.3119 18° North 512 589 37,000  Level Washington Center
Mon 11:38:54 AM 38.9544 -75.2339 25° Northeast 512 589 37,000  Level Washington Center
Mon 11:39:54 AM 39.0706 -75.1103 40° Northeast 520 598 37,000  Level Washington Center
Mon 11:40:54 AM 39.1869 -74.9944 38° Northeast 525 604 37,000  Level Washington Center
Mon 11:41:54 AM 39.3031 -74.8728 39° Northeast 530 610 37,000  Level Washington Center
Mon 11:42:54 AM 39.4189 -74.7533 39° Northeast 530 610 37,000  Level Washington Center
Mon 11:43:54 AM 39.5367 -74.6336 38° Northeast 536 617 37,000 -1,162 Level Washington Center
Mon 11:46:05 AM 39.7897 -74.3694 39° Northeast 552 635 33,300 -2,286 Descending New York Center
Mon 11:47:03 AM 39.9125 -74.2431 38° Northeast 557 641 29,800 -3,025 Descending New York Center
Mon 11:48:04 AM 40.0331 -74.1136 39° Northeast 557 641 27,300 -2,380 Descending New York Center
Mon 11:49:04 AM 40.1467 -73.9914 39° Northeast 546 628 25,000 -1,636 Descending New York Center
Mon 11:50:05 AM 40.2539 -73.8822 38° Northeast 518 596 24,000 -1,966 Descending New York Center
Mon 11:51:03 AM 40.3547 -73.7778 38° Northeast 456 525 21,100 -1,685 Descending New York Center
Mon 11:53:03 AM 40.5231 -73.5950 40° Northeast 403 464 19,000 -700 Descending Boston Center
Mon 11:54:03 AM 40.5906 -73.5250 38° Northeast 388 447 19,000  Level Boston Center
Mon 11:55:03 AM 40.6894 -73.4172 40° Northeast 388 447 19,000  Level Boston Center
Mon 11:56:03 AM 40.7567 -73.3442 39° Northeast 388 447 19,000 -167 Level Boston Center
Mon 11:57:27 AM 40.8722 -73.2142 40° Northeast 383 441 18,600 -375 Descending Boston Center
Mon 11:58:27 AM 40.9667 -73.1025 42° Northeast 383 441 18,100 -750 Descending Boston Center
Mon 11:59:27 AM 41.0464 -73.0125 40° Northeast 383 441 17,100 -1,150 Descending Boston Center
Mon 12:00:27 PM 41.1239 -72.9194 42° Northeast 383 441 15,800 -1,448 Descending Boston Center
Mon 12:00:54 PM 41.1575 -72.8811 41° Northeast 369 425 15,000 -1,846 Descending Boston Center
Mon 12:01:19 PM 41.1847 -72.8483 42° Northeast 366 421 14,200 -1,976 Descending Boston Center
Mon 12:02:19 PM 41.2578 -72.7603 42° Northeast 354 407 12,200 -1,688 Descending Boston Center
Mon 12:03:27 PM 41.3558 -72.7167 18° North 324 373 10,600 -1,082 Descending Boston Center
Mon 12:04:21 PM 41.4372 -72.7447 346° North 324 373 10,000 -887 Descending Boston Center
Mon 12:05:22 PM 41.5206 -72.7728 346° North 309 356 8,900 -1,333 Descending Boston Center
Mon 12:06:27 PM 41.5869 -72.7953 346° North 296 341 7,200 -1,914 Descending Boston Center
Mon 12:07:18 PM 41.6642 -72.8208 346° North 280 322 5,200 -1,450 Descending Boston Center
Mon 12:08:27 PM 41.7369 -72.8406 349° North 254 292 4,300 -992 Descending Boston Center
Mon 12:09:19 PM 41.7892 -72.8300 North 212 244 3,200 -1,115 Descending Boston Center
Mon 12:10:20 PM 41.8414 -72.8106 16° North 193 222 2,200 -689 Descending Boston Center
Mon 12:11:21 PM 41.8747 -72.7747 39° Northeast 157 181 1,800 -567 Descending Boston Center
Mon 12:12:27 PM 41.9081 -72.7331 43° Northeast 143 165 1,000 -727 Descending Boston Center
Mon 12:17:00 PM 41.9333 -72.6833 45° Northeast  Level FlightAware Approximate
Mon 12:24:00 PM 41.9392 -72.6834 45° Northeast  Level Estimated

Login

Don't have an account? Register now (free) for customized features, flight alerts, and more!